TimeCAT,TemperatureF,Dew PointF,Humidity,Sea Level PressureIn,VisibilityMPH,Wind Direction,Wind SpeedMPH,Gust SpeedMPH,PrecipitationIn,Events,Conditions,WindDirDegrees,DateUTC
12:00 AM,71.6,57.2,60,30.01,-9999.0,ESE,5.8,-,N/A,,Clear,110,2014-02-13 22:00:00
7:00 AM,66.2,60.8,83,29.98,-9999.0,ESE,10.4,-,N/A,,Clear,110,2014-02-14 05:00:00
8:00 AM,71.6,60.8,69,30.01,-9999.0,East,10.4,-,N/A,,Clear,100,2014-02-14 06:00:00
9:00 AM,75.2,62.6,65,30.01,-9999.0,East,15.0,-,N/A,,Clear,90,2014-02-14 07:00:00
10:00 AM,78.8,64.4,61,30.01,-9999.0,East,13.8,-,N/A,,Clear,100,2014-02-14 08:00:00
11:00 AM,81,62,42,,6,ESE,13.8,,,,Partly Cloudy,110,2014-02-14 09:00:00
11:00 AM,80.6,62.6,54,30.01,6.2,ESE,13.8,-,N/A,,Partly Cloudy,110,2014-02-14 09:00:00
12:00 PM,82.4,59.0,45,30.01,6.2,East,12.7,-,N/A,,Mostly Cloudy,100,2014-02-14 10:00:00
1:00 PM,84.2,59.0,42,29.98,6.2,ESE,10.4,-,N/A,,Mostly Cloudy,110,2014-02-14 11:00:00
2:00 PM,86,59,30,,6,SSE,12.7,,,,Partly Cloudy,150,2014-02-14 12:00:00
2:00 PM,86.0,59.0,40,29.98,6.2,SSE,12.7,-,N/A,,Mostly Cloudy,150,2014-02-14 12:00:00
3:00 PM,86.0,60.8,43,29.95,6.2,SSE,11.5,-,N/A,,Mostly Cloudy,150,2014-02-14 13:00:00
4:00 PM,87.8,60.8,40,29.92,6.2,ESE,9.2,-,N/A,,Mostly Cloudy,120,2014-02-14 14:00:00
5:00 PM,86,62,35,,6,SE,11.5,,,,Partly Cloudy,140,2014-02-14 15:00:00
5:00 PM,86.0,62.6,45,29.92,6.2,SE,11.5,-,N/A,Thunderstorm,Thunderstorm,140,2014-02-14 15:00:00
6:00 PM,84.2,62.6,48,29.92,6.2,ESE,6.9,-,N/A,,Scattered Clouds,120,2014-02-14 16:00:00
7:00 PM,82.4,62.6,51,29.92,6.2,ESE,6.9,-,N/A,,Partly Cloudy,110,2014-02-14 17:00:00
8:00 PM,80,63,46,,6,SE,8.1,,,,Partly Cloudy,140,2014-02-14 18:00:00
8:00 PM,80.6,62.6,54,29.95,6.2,SE,8.1,-,N/A,,Partly Cloudy,140,2014-02-14 18:00:00
9:00 PM,77.0,64.4,65,29.98,-9999.0,SSE,11.5,-,N/A,,Clear,150,2014-02-14 19:00:00
10:00 PM,77.0,64.4,65,30.01,-9999.0,SE,9.2,-,N/A,,Clear,130,2014-02-14 20:00:00
11:00 PM,75,65,62,,6,SE,8.1,,,,Partly Cloudy,140,2014-02-14 21:00:00
11:00 PM,75.2,64.4,69,30.04,-9999.0,SE,8.1,-,N/A,,Clear,140,2014-02-14 21:00:00